Time;durP1;ratioP1;P1;durP2;ratioP2;P2;SDS_P1;SDS_P2;PMS_P1;PMS_P2;Temp;Humidity;BMP_temperature;BMP_pressure;BME280_temperature;BME280_humidity;BME280_pressure;Samples;Min_cycle;Max_cycle;Signal;HPM_P1;HPM_P2
2022/04/16 12:29:59;;;;;;;0.20;0.00;;;26.80;99.90;;;;;;25646420;23;20524;-70
2022/04/16 12:40:03;;;;;;;0.20;0.00;;;26.90;99.90;;;;;;25616331;23;20246;-71
2022/04/16 12:50:10;;;;;;;0.40;0.30;;;27.00;99.90;;;;;;25646243;23;20254;-73
2022/04/16 13:00:15;;;;;;;0.20;0.00;;;27.10;99.90;;;;;;25641522;23;20262;-72
2022/04/16 13:10:20;;;;;;;0.20;0.00;;;27.10;99.90;;;;;;25648957;23;20225;-72
2022/04/16 13:20:24;;;;;;;0.20;0.00;;;26.90;99.90;;;;;;25651267;23;20262;-72
2022/04/16 13:30:29;;;;;;;0.20;0.00;;;27.50;99.90;;;;;;25656461;23;20210;-86
2022/04/16 13:50:57;;;;;;;0.77;0.77;;;27.40;99.90;;;;;;25635135;23;20244;-78
2022/04/16 14:01:02;;;;;;;0.20;0.00;;;28.80;99.90;;;;;;25656087;23;20201;-78
2022/04/16 14:11:07;;;;;;;0.20;0.00;;;29.10;99.90;;;;;;25658619;23;20603;-76
2022/04/16 14:21:12;;;;;;;0.20;0.00;;;28.50;99.90;;;;;;25652200;23;20761;-76
2022/04/16 14:31:17;;;;;;;0.20;0.05;;;29.80;99.90;;;;;;25654615;23;20190;-78
2022/04/16 14:41:21;;;;;;;0.20;0.00;;;29.30;99.90;;;;;;25626687;23;20177;-73
2022/04/16 14:51:29;;;;;;;0.20;0.00;;;29.00;99.90;;;;;;25653120;23;20186;-73
2022/04/16 15:01:33;;;;;;;0.20;0.00;;;30.30;99.90;;;;;;25651860;23;20205;-72
2022/04/16 15:11:38;;;;;;;0.20;0.00;;;29.90;99.90;;;;;;25651747;23;20182;-71
2022/04/16 15:21:42;;;;;;;0.20;0.10;;;29.20;99.90;;;;;;25649405;23;20209;-71
2022/04/16 15:31:47;;;;;;;0.20;0.00;;;29.40;99.90;;;;;;25652051;23;20190;-73
2022/04/16 15:41:50;;;;;;;0.85;0.80;;;27.50;99.90;;;;;;25651236;23;20182;-71
2022/04/16 15:51:56;;;;;;;0.20;0.00;;;25.10;99.90;;;;;;25652272;23;20189;-72
2022/04/16 16:02:00;;;;;;;0.28;0.28;;;24.70;99.90;;;;;;25651281;23;20189;-71
2022/04/16 16:12:06;;;;;;;0.20;0.00;;;23.50;99.90;;;;;;25622710;23;20197;-72
2022/04/16 16:22:09;;;;;;;0.20;0.00;;;23.10;99.90;;;;;;25650145;23;20259;-71
2022/04/16 16:32:15;;;;;;;0.20;0.00;;;22.70;99.90;;;;;;25649907;23;20197;-71
2022/04/16 16:42:19;;;;;;;0.20;0.10;;;22.20;99.90;;;;;;25653481;23;20175;-70
2022/04/16 16:52:24;;;;;;;1.10;0.93;;;21.90;99.90;;;;;;25655853;23;20197;-69
2022/04/16 17:12:51;;;;;;;0.50;0.50;;;21.60;99.90;;;;;;25655847;23;20201;-72
2022/04/16 17:22:55;;;;;;;0.40;0.40;;;21.60;99.90;;;;;;25656629;23;20256;-71
2022/04/16 17:33:01;;;;;;;0.53;0.53;;;21.40;99.90;;;;;;25654762;23;20201;-75
2022/04/16 17:43:04;;;;;;;0.20;0.20;;;21.20;99.90;;;;;;25657172;23;20186;-73
2022/04/16 17:53:11;;;;;;;0.20;0.10;;;20.20;99.90;;;;;;25627088;23;20190;-71
2022/04/16 18:03:15;;;;;;;0.20;0.10;;;19.70;99.90;;;;;;25657475;23;20197;-72
2022/04/16 18:13:20;;;;;;;0.20;0.03;;;19.30;99.90;;;;;;25653822;23;20186;-71
2022/04/16 18:23:24;;;;;;;0.20;0.00;;;19.60;99.90;;;;;;25653998;23;20191;-72
2022/04/16 18:33:30;;;;;;;0.20;0.07;;;19.40;99.90;;;;;;25626212;23;20196;-71
2022/04/16 18:43:33;;;;;;;0.20;0.03;;;19.10;99.90;;;;;;25651413;23;20174;-72
2022/04/16 18:53:39;;;;;;;0.20;0.00;;;19.00;99.90;;;;;;25651289;23;20193;-72
2022/04/16 19:14:08;;;;;;;0.20;0.10;;;18.90;99.90;;;;;;25595466;23;20190;-71
2022/04/16 19:24:12;;;;;;;0.20;0.10;;;18.70;99.90;;;;;;25649981;23;20194;-72
2022/04/16 19:34:17;;;;;;;0.20;0.00;;;18.50;99.90;;;;;;25652866;23;20186;-68
2022/04/16 19:44:21;;;;;;;0.20;0.10;;;18.30;99.90;;;;;;25651569;23;20169;-71
2022/04/16 19:54:27;;;;;;;0.20;0.10;;;17.80;99.90;;;;;;25653547;23;20186;-70
2022/04/16 20:04:31;;;;;;;0.20;0.10;;;17.70;99.90;;;;;;25653083;23;20186;-70
2022/04/16 20:14:36;;;;;;;0.20;0.10;;;17.60;99.90;;;;;;25651797;23;20186;-71
2022/04/16 20:24:40;;;;;;;0.20;0.10;;;17.70;99.90;;;;;;25627666;23;20297;-72
2022/04/16 20:34:45;;;;;;;0.20;0.10;;;17.30;99.90;;;;;;25631813;23;20197;-73
2022/04/16 20:55:13;;;;;;;0.20;0.00;;;17.10;99.90;;;;;;25657501;23;20198;-72
2022/04/16 21:05:17;;;;;;;0.20;0.10;;;16.70;99.90;;;;;;25659501;23;20186;-73
2022/04/16 21:15:22;;;;;;;0.20;0.10;;;16.70;99.90;;;;;;25632650;23;20186;-74
2022/04/16 21:25:26;;;;;;;0.20;0.00;;;16.60;99.90;;;;;;25659164;23;20194;-79
2022/04/16 21:35:33;;;;;;;0.20;0.10;;;16.50;99.90;;;;;;25635446;23;20198;-81
2022/04/16 21:45:37;;;;;;;0.20;0.00;;;16.30;99.90;;;;;;25660348;23;20158;-80
2022/04/16 21:55:42;;;;;;;0.20;0.00;;;16.10;99.90;;;;;;25659313;23;20186;-80
2022/04/16 22:05:46;;;;;;;0.20;0.00;;;16.10;99.90;;;;;;25631910;23;20190;-79
2022/04/16 22:15:51;;;;;;;0.20;0.00;;;16.20;99.90;;;;;;25655283;23;20186;-80
2022/04/16 22:25:55;;;;;;;0.20;0.10;;;16.10;99.90;;;;;;25658411;23;20205;-79
2022/04/16 22:36:00;;;;;;;0.20;0.10;;;15.90;99.90;;;;;;25631353;23;20220;-80
2022/04/16 22:46:05;;;;;;;0.20;0.10;;;15.50;99.90;;;;;;25654369;23;20189;-79
2022/04/16 22:56:10;;;;;;;0.20;0.10;;;15.40;99.90;;;;;;25627036;23;20190;-80
2022/04/16 23:06:14;;;;;;;0.20;0.10;;;15.50;99.90;;;;;;25651981;23;20258;-81
2022/04/16 23:26:40;;;;;;;0.20;0.00;;;15.70;99.90;;;;;;25640670;23;20365;-81
2022/04/16 23:36:45;;;;;;;0.20;0.00;;;15.30;99.90;;;;;;25613736;23;20270;-70
2022/04/16 23:57:11;;;;;;;0.20;0.00;;;15.40;99.90;;;;;;25638905;23;20275;-80
